createdAt,value
2022-08-12T00:01:02.967Z,99835.38
2022-08-12T00:03:50.315Z,99839.53
2022-08-12T00:06:37.937Z,99832.41
2022-08-12T00:09:26.390Z,99833.09
2022-08-12T00:12:14.117Z,99826.59
2022-08-12T00:15:01.708Z,99827.81
2022-08-12T00:17:47.794Z,99824.22
2022-08-12T00:20:34.121Z,99824.28
2022-08-12T00:23:20.380Z,99819.91
2022-08-12T00:26:21.573Z,99807.75
2022-08-12T00:29:13.225Z,99807.75
2022-08-12T00:32:00.458Z,99813.63
2022-08-12T00:34:49.070Z,99820.41
2022-08-12T00:37:38.480Z,99814.44
2022-08-12T00:40:26.186Z,99815.03
2022-08-12T00:42:54.835Z,99807.50
2022-08-12T00:45:24.589Z,99805.59
2022-08-12T00:47:53.900Z,99800.03
2022-08-12T00:50:23.358Z,99809.75
2022-08-12T00:52:53.615Z,99804.13
2022-08-12T00:55:22.376Z,99809.94
2022-08-12T00:57:52.231Z,99812.53
2022-08-12T01:00:22.640Z,99796.59
2022-08-12T01:02:55.788Z,99808.56
2022-08-12T01:05:42.804Z,99803.81
2022-08-12T01:08:43.252Z,99805.00
2022-08-12T01:11:31.856Z,99797.78
2022-08-12T01:14:01.535Z,99804.25
2022-08-12T01:16:29.942Z,99800.09
2022-08-12T01:19:00.248Z,99800.00
2022-08-12T01:21:46.720Z,99799.03
2022-08-12T01:24:36.753Z,99791.84
2022-08-12T01:27:07.742Z,99797.00
2022-08-12T01:29:41.837Z,99800.44
2022-08-12T01:32:12.658Z,99792.88
2022-08-12T01:34:43.202Z,99798.19
2022-08-12T01:37:11.709Z,99796.47
2022-08-12T01:40:36.046Z,99792.25
2022-08-12T01:42:46.440Z,99807.91
2022-08-12T01:45:15.366Z,99797.22
2022-08-12T01:47:55.141Z,99801.16
2022-08-12T01:50:27.683Z,99790.28
2022-08-12T01:53:05.757Z,99782.94
2022-08-12T01:55:38.361Z,99784.16
2022-08-12T01:58:16.503Z,99781.88
2022-08-12T02:00:54.954Z,99791.44
2022-08-12T02:03:54.418Z,99784.44
2022-08-12T02:06:45.063Z,99786.41
2022-08-12T02:09:33.141Z,99782.31
2022-08-12T02:12:08.547Z,99793.16
2022-08-12T02:14:52.752Z,99786.00
2022-08-12T02:17:55.410Z,99787.66
2022-08-12T02:20:35.316Z,99787.22
2022-08-12T02:23:19.424Z,99769.41
2022-08-12T02:25:48.376Z,99778.88
2022-08-12T02:28:18.057Z,99772.69
2022-08-12T02:30:46.719Z,99768.91
2022-08-12T02:33:15.123Z,99772.81
2022-08-12T02:35:43.254Z,99770.47
2022-08-12T02:38:12.846Z,99764.69
2022-08-12T02:40:45.473Z,99756.75
2022-08-12T02:43:19.150Z,99767.34
2022-08-12T02:45:51.377Z,99763.09
2022-08-12T02:48:24.801Z,99761.44
2022-08-12T02:50:53.972Z,99758.75
2022-08-12T02:53:22.376Z,99755.56
2022-08-12T02:55:50.555Z,99761.84
2022-08-12T02:58:20.611Z,99753.78
2022-08-12T03:01:02.379Z,99759.16
2022-08-12T03:03:35.130Z,99753.56
2022-08-12T03:06:06.458Z,99750.31
2022-08-12T03:08:41.271Z,99749.00
2022-08-12T03:11:16.131Z,99757.81
2022-08-12T03:13:47.908Z,99758.19
2022-08-12T03:16:16.019Z,99758.56
2022-08-12T03:18:45.956Z,99758.69
2022-08-12T03:21:55.669Z,99755.06
2022-08-12T03:24:09.385Z,99757.41
2022-08-12T03:26:38.592Z,99763.50
2022-08-12T03:29:08.456Z,99761.28
2022-08-12T03:31:36.913Z,99761.66
2022-08-12T03:34:07.649Z,99762.56
2022-08-12T03:36:38.088Z,99764.69
2022-08-12T03:39:36.546Z,99767.66
2022-08-12T03:42:28.669Z,99774.63
2022-08-12T03:45:32.855Z,99775.78
2022-08-12T03:48:23.974Z,99776.78
2022-08-12T03:51:10.511Z,99783.19
2022-08-12T03:53:56.470Z,99777.16
2022-08-12T03:56:42.371Z,99775.88
2022-08-12T03:59:28.955Z,99777.72
2022-08-12T04:01:58.743Z,99773.72
2022-08-12T04:04:28.699Z,99770.69
2022-08-12T04:06:58.139Z,99774.69
2022-08-12T04:09:26.816Z,99766.81
2022-08-12T04:12:12.359Z,99769.03
2022-08-12T04:14:40.853Z,99773.88
2022-08-12T04:17:12.062Z,99772.16
2022-08-12T04:19:40.248Z,99776.53
2022-08-12T04:22:12.623Z,99775.00
2022-08-12T04:24:42.264Z,99775.38
2022-08-12T04:27:12.596Z,99785.94
2022-08-12T04:30:21.315Z,99791.28
2022-08-12T04:32:32.158Z,99789.72
2022-08-12T04:35:00.372Z,99791.13
2022-08-12T04:37:28.590Z,99796.19
2022-08-12T04:40:17.236Z,99787.88
2022-08-12T04:42:56.906Z,99795.59
2022-08-12T04:45:25.235Z,99787.69
2022-08-12T04:47:54.862Z,99793.66
2022-08-12T04:50:35.373Z,99797.16
2022-08-12T04:53:05.538Z,99798.09
2022-08-12T04:55:34.935Z,99803.06
2022-08-12T04:58:03.290Z,99796.78
2022-08-12T05:00:31.484Z,99795.91
2022-08-12T05:03:01.514Z,99807.31
2022-08-12T05:05:33.921Z,99812.03
2022-08-12T05:08:07.946Z,99807.59
2022-08-12T05:10:36.321Z,99804.38
2022-08-12T05:13:08.635Z,99807.91
2022-08-12T05:16:00.263Z,99808.59
2022-08-12T05:18:29.445Z,99807.78
2022-08-12T05:20:59.218Z,99815.06
2022-08-12T05:23:27.789Z,99818.50
2022-08-12T05:25:57.516Z,99812.63
2022-08-12T05:28:27.346Z,99815.22
2022-08-12T05:30:56.632Z,99818.09
2022-08-12T05:33:26.733Z,99818.34
2022-08-12T05:35:56.440Z,99826.03
2022-08-12T05:38:43.663Z,99816.22
2022-08-12T05:41:19.302Z,99817.56
2022-08-12T05:43:51.121Z,99829.19
2022-08-12T05:46:19.770Z,99829.06
2022-08-12T05:48:49.640Z,99827.75
2022-08-12T05:51:19.790Z,99827.94
2022-08-12T05:53:48.441Z,99834.13
2022-08-12T05:56:21.648Z,99836.81
2022-08-12T05:58:51.374Z,99841.22
2022-08-12T06:02:09.528Z,99833.31
2022-08-12T06:04:10.169Z,99836.47
2022-08-12T06:06:42.348Z,99833.44
2022-08-12T06:09:11.531Z,99834.69
2022-08-12T06:12:05.247Z,99833.38
2022-08-12T06:14:35.281Z,99835.75
2022-08-12T06:17:04.198Z,99837.13
2022-08-12T06:20:26.633Z,99835.88
2022-08-12T06:22:22.157Z,99833.56
2022-08-12T06:24:53.215Z,99838.59
2022-08-12T06:27:21.786Z,99837.84
2022-08-12T06:30:08.283Z,99841.56
2022-08-12T06:32:51.904Z,99837.06
2022-08-12T06:35:47.893Z,99831.50
2022-08-12T06:38:19.466Z,99840.00
2022-08-12T06:41:08.980Z,99831.47
2022-08-12T06:44:06.921Z,99837.28
2022-08-12T06:46:26.886Z,99846.19
2022-08-12T06:48:59.377Z,99838.88
2022-08-12T06:51:30.056Z,99826.50
2022-08-12T06:54:00.550Z,99821.66
2022-08-12T06:56:59.627Z,99832.41
2022-08-12T06:59:17.463Z,99838.03
2022-08-12T07:01:51.043Z,99830.94
2022-08-12T07:04:37.864Z,99820.91
2022-08-12T07:07:08.334Z,99837.03
2022-08-12T07:10:05.527Z,99821.63
2022-08-12T07:12:27.723Z,99822.03
2022-08-12T07:14:57.758Z,99816.25
2022-08-12T07:17:26.463Z,99812.81
2022-08-12T07:19:57.992Z,99808.69
2022-08-12T07:22:28.928Z,99811.38
2022-08-12T07:25:16.192Z,99811.44
2022-08-12T07:27:46.804Z,99815.34
2022-08-12T07:30:15.557Z,99823.50
2022-08-12T07:32:49.861Z,99812.44
2022-08-12T07:35:19.656Z,99825.81
2022-08-12T07:37:50.671Z,99815.00
2022-08-12T07:40:21.293Z,99822.66
2022-08-12T07:42:49.671Z,99822.38
2022-08-12T07:45:19.571Z,99822.03
2022-08-12T07:47:48.737Z,99825.16
2022-08-12T07:50:23.792Z,99822.66
2022-08-12T07:52:52.447Z,99817.66
2022-08-12T07:55:21.960Z,99822.94
2022-08-12T07:57:52.542Z,99824.81
2022-08-12T08:00:21.166Z,99826.50
2022-08-12T08:02:53.522Z,99836.72
2022-08-12T08:05:23.519Z,99842.78
2022-08-12T08:07:53.448Z,99836.34
2022-08-12T08:10:23.089Z,99848.03
2022-08-12T08:12:58.239Z,99846.13
2022-08-12T08:15:51.173Z,99843.66
2022-08-12T08:18:26.654Z,99843.22
2022-08-12T08:20:56.944Z,99847.63
2022-08-12T08:23:56.230Z,99848.66
2022-08-12T08:26:27.411Z,99836.97
2022-08-12T08:28:55.795Z,99839.66
2022-08-12T08:31:23.946Z,99832.75
2022-08-12T08:34:05.014Z,99832.94
2022-08-12T08:36:43.736Z,99827.97
2022-08-12T08:39:17.089Z,99819.16
2022-08-12T08:42:16.363Z,99832.97
2022-08-12T08:44:49.746Z,99826.00
2022-08-12T08:47:26.524Z,99820.78
2022-08-12T08:49:57.514Z,99827.41
2022-08-12T08:52:40.074Z,99836.34
2022-08-12T08:55:10.669Z,99833.00
2022-08-12T08:57:43.843Z,99829.75
2022-08-12T09:00:16.746Z,99832.25
2022-08-12T09:02:49.396Z,99826.22
2022-08-12T09:05:27.480Z,99824.84
2022-08-12T09:10:47.221Z,99825.38
2022-08-12T09:16:20.961Z,99822.38
2022-08-12T09:18:52.592Z,99821.88
2022-08-12T09:21:54.535Z,99831.00
2022-08-12T09:24:27.687Z,99816.91
2022-08-12T09:26:56.220Z,99810.22
2022-08-12T09:30:11.094Z,99812.69
2022-08-12T09:32:56.008Z,99811.69
2022-08-12T09:35:21.874Z,99808.59
2022-08-12T09:37:58.154Z,99814.41
2022-08-12T09:41:01.819Z,99812.69
2022-08-12T09:43:34.810Z,99815.09
2022-08-12T09:46:21.649Z,99816.59
2022-08-12T09:48:55.868Z,99805.66
2022-08-12T09:51:37.595Z,99800.41
2022-08-12T09:54:31.674Z,99801.25
2022-08-12T09:56:59.521Z,99792.59
2022-08-12T10:00:17.665Z,99790.53
2022-08-12T10:02:44.846Z,99777.34
2022-08-12T10:05:13.989Z,99778.66
2022-08-12T10:07:46.519Z,99773.69
2022-08-12T10:10:23.056Z,99772.91
2022-08-12T10:13:34.832Z,99760.41
2022-08-12T10:16:05.508Z,99765.56
2022-08-12T10:18:51.753Z,99756.50
2022-08-12T10:21:23.236Z,99760.13
2022-08-12T10:23:55.128Z,99763.22
2022-08-12T10:26:43.112Z,99767.00
2022-08-12T10:30:03.406Z,99768.09
2022-08-12T10:32:45.078Z,99759.28
2022-08-12T10:35:14.374Z,99752.44
2022-08-12T10:38:33.849Z,99747.28
2022-08-12T10:40:34.536Z,99747.88
2022-08-12T10:43:23.776Z,99737.81
2022-08-12T10:45:54.302Z,99732.47
2022-08-12T10:48:34.138Z,99734.19
2022-08-12T10:52:03.116Z,99738.59
2022-08-12T10:54:00.667Z,99724.19
2022-08-12T10:56:34.490Z,99727.72
2022-08-12T10:59:05.485Z,99727.84
2022-08-12T11:04:18.803Z,99733.69
2022-08-12T11:04:43.684Z,99726.53
2022-08-12T11:08:38.705Z,99727.91
2022-08-12T11:10:08.362Z,99729.88
2022-08-12T11:12:58.760Z,99728.03
2022-08-12T11:16:04.293Z,99720.25
2022-08-12T11:18:17.837Z,99713.06
2022-08-12T11:20:49.195Z,99711.38
2022-08-12T11:23:26.142Z,99713.66
2022-08-12T11:26:07.612Z,99710.16
2022-08-12T11:28:38.613Z,99715.25
2022-08-12T11:31:13.262Z,99700.31
2022-08-12T11:34:05.749Z,99697.53
2022-08-12T11:36:32.072Z,99700.94
2022-08-12T11:39:05.262Z,99701.31
2022-08-12T11:41:34.800Z,99696.31
2022-08-12T11:44:35.170Z,99694.06
2022-08-12T11:46:53.089Z,99695.50
2022-08-12T11:49:32.220Z,99694.03
2022-08-12T11:52:26.570Z,99694.03
2022-08-12T11:54:55.140Z,99697.31
2022-08-12T11:58:34.154Z,99680.25
2022-08-12T12:03:01.636Z,99690.94
2022-08-12T12:05:41.539Z,99681.41
2022-08-12T12:08:38.111Z,99684.03
2022-08-12T12:11:11.849Z,99686.44
2022-08-12T12:14:07.955Z,99673.81
2022-08-12T12:16:28.310Z,99675.44
2022-08-12T12:18:58.119Z,99673.66
2022-08-12T12:21:46.990Z,99668.91
2022-08-12T12:24:14.650Z,99674.53
2022-08-12T12:27:00.077Z,99670.94
2022-08-12T12:30:19.427Z,99671.81
2022-08-12T12:32:18.582Z,99671.19
2022-08-12T12:35:13.848Z,99659.97
2022-08-12T12:38:04.687Z,99659.84
2022-08-12T12:40:30.089Z,99653.28
2022-08-12T12:43:05.079Z,99657.69
2022-08-12T12:45:35.459Z,99665.41
2022-08-12T12:48:05.497Z,99652.09
2022-08-12T12:50:42.412Z,99644.72
2022-08-12T12:54:08.162Z,99652.34
2022-08-12T12:56:15.962Z,99648.25
2022-08-12T12:58:45.774Z,99651.75
2022-08-12T13:01:26.621Z,99638.34
2022-08-12T13:04:02.099Z,99645.94
2022-08-12T13:06:32.291Z,99641.22
2022-08-12T13:09:02.594Z,99639.91
2022-08-12T13:11:40.655Z,99644.59
2022-08-12T13:14:28.775Z,99637.69
2022-08-12T13:17:02.989Z,99635.56
2022-08-12T13:19:38.782Z,99624.50
2022-08-12T13:22:20.702Z,99620.09
2022-08-12T13:24:54.932Z,99630.06
2022-08-12T13:27:35.664Z,99620.94
2022-08-12T13:30:11.393Z,99620.38
2022-08-12T13:32:41.562Z,99625.00
2022-08-12T13:35:19.413Z,99619.78
2022-08-12T13:38:02.430Z,99627.00
2022-08-12T13:40:34.289Z,99622.81
2022-08-12T13:43:06.385Z,99613.94
2022-08-12T13:45:36.740Z,99611.19
2022-08-12T13:48:06.780Z,99617.09
2022-08-12T13:50:37.521Z,99609.91
2022-08-12T13:53:24.515Z,99607.91
2022-08-12T13:56:01.627Z,99599.91
2022-08-12T13:58:34.693Z,99601.31
2022-08-12T14:01:09.213Z,99601.31
2022-08-12T14:03:51.128Z,99596.09
2022-08-12T14:06:20.904Z,99592.81
2022-08-12T14:08:50.527Z,99592.00
2022-08-12T14:11:25.364Z,99596.13
2022-08-12T14:14:04.301Z,99596.38
2022-08-12T14:16:48.700Z,99595.84
2022-08-12T14:19:24.466Z,99599.97
2022-08-12T14:21:59.688Z,99604.53
2022-08-12T14:24:31.660Z,99590.31
2022-08-12T14:27:02.069Z,99596.34
2022-08-12T14:29:59.055Z,99593.09
2022-08-12T14:32:21.630Z,99592.63
2022-08-12T14:34:53.083Z,99585.41
2022-08-12T14:37:56.265Z,99584.63
2022-08-12T14:40:18.410Z,99582.91
2022-08-12T14:42:47.284Z,99583.69
2022-08-12T14:45:15.866Z,99579.41
2022-08-12T14:47:58.702Z,99577.59
2022-08-12T14:50:57.529Z,99563.59
2022-08-12T14:59:23.447Z,99557.78
2022-08-12T15:01:52.435Z,99560.75
2022-08-12T15:04:31.319Z,99566.88
2022-08-12T15:07:00.192Z,99558.06
2022-08-12T15:09:29.530Z,99558.72
2022-08-12T15:12:03.102Z,99552.66
2022-08-12T15:14:32.465Z,99545.81
2022-08-12T15:17:07.155Z,99558.78
2022-08-12T15:20:31.241Z,99552.22
2022-08-12T15:22:36.953Z,99552.56
2022-08-12T15:25:17.692Z,99545.13
2022-08-12T15:28:04.301Z,99552.44
2022-08-12T15:30:35.270Z,99543.13
2022-08-12T15:33:12.730Z,99543.31
2022-08-12T15:35:53.228Z,99531.31
2022-08-12T15:38:24.896Z,99527.34
2022-08-12T15:40:59.066Z,99529.09
2022-08-12T15:44:17.055Z,99525.19
2022-08-12T15:46:25.543Z,99522.72
2022-08-12T15:48:54.457Z,99528.84
2022-08-12T15:51:57.258Z,99518.16
2022-08-12T15:54:33.103Z,99519.88
2022-08-12T15:57:08.228Z,99522.56
2022-08-12T16:00:03.758Z,99512.78
2022-08-12T16:02:29.602Z,99509.94
2022-08-12T16:04:58.581Z,99516.03
2022-08-12T16:07:31.213Z,99509.31
2022-08-12T16:10:08.387Z,99513.66
2022-08-12T16:12:43.458Z,99511.06
2022-08-12T16:15:25.015Z,99517.06
2022-08-12T16:18:20.290Z,99502.81
2022-08-12T16:20:46.670Z,99514.06
2022-08-12T16:23:36.525Z,99508.91
2022-08-12T16:26:15.353Z,99509.19
2022-08-12T16:28:56.213Z,99513.75
2022-08-12T16:31:25.134Z,99510.91
2022-08-12T16:34:00.592Z,99514.41
2022-08-12T16:36:30.143Z,99512.78
2022-08-12T16:39:03.707Z,99504.47
2022-08-12T16:41:39.970Z,99509.41
2022-08-12T16:44:09.209Z,99508.91
2022-08-12T16:46:40.197Z,99511.41
2022-08-12T16:49:26.061Z,99507.66
2022-08-12T16:51:58.161Z,99504.84
2022-08-12T16:54:36.185Z,99498.28
2022-08-12T16:57:09.636Z,99497.16
2022-08-12T16:59:54.186Z,99496.88
2022-08-12T17:02:33.466Z,99494.88
2022-08-12T17:05:04.208Z,99490.31
2022-08-12T17:07:36.124Z,99495.31
2022-08-12T17:10:08.845Z,99488.53
2022-08-12T17:12:38.369Z,99491.06
2022-08-12T17:15:50.496Z,99485.59
2022-08-12T17:18:38.817Z,99495.94
2022-08-12T17:20:47.714Z,99481.59
2022-08-12T17:23:17.317Z,99491.38
2022-08-12T17:25:49.019Z,99484.13
2022-08-12T17:28:19.657Z,99491.50
2022-08-12T17:30:54.437Z,99500.94
2022-08-12T17:33:33.328Z,99498.91
2022-08-12T17:36:05.571Z,99498.25
2022-08-12T17:38:35.067Z,99491.47
2022-08-12T17:41:21.543Z,99497.34
2022-08-12T17:43:58.307Z,99491.09
2022-08-12T17:46:33.399Z,99490.78
2022-08-12T17:49:06.761Z,99491.94
2022-08-12T17:52:02.850Z,99490.72
2022-08-12T17:54:32.833Z,99502.59
2022-08-12T17:57:10.707Z,99502.78
2022-08-12T17:59:48.542Z,99499.91
2022-08-12T18:02:25.538Z,99502.75
2022-08-12T18:05:10.194Z,99508.06
2022-08-12T18:07:39.362Z,99513.34
2022-08-12T18:10:08.643Z,99508.34
2022-08-12T18:12:38.639Z,99506.69
2022-08-12T18:15:11.534Z,99510.88
2022-08-12T18:17:59.389Z,99512.22
2022-08-12T18:20:29.801Z,99509.34
2022-08-12T18:23:01.199Z,99510.59
2022-08-12T18:26:15.609Z,99510.28
2022-08-12T18:28:43.219Z,99513.13
2022-08-12T18:31:13.677Z,99519.91
2022-08-12T18:33:43.997Z,99511.16
2022-08-12T18:36:22.366Z,99515.94
2022-08-12T18:38:56.285Z,99516.13
2022-08-12T18:41:34.298Z,99514.38
2022-08-12T18:44:07.990Z,99510.31
2022-08-12T18:46:53.983Z,99519.94
2022-08-12T18:49:30.810Z,99519.94
2022-08-12T18:52:04.498Z,99522.00
2022-08-12T18:54:36.123Z,99527.38
2022-08-12T18:57:15.518Z,99526.31
2022-08-12T18:59:59.756Z,99537.16
2022-08-12T19:02:33.912Z,99534.06
2022-08-12T19:05:09.501Z,99528.59
2022-08-12T19:07:50.049Z,99528.03
2022-08-12T19:10:30.306Z,99531.19
2022-08-12T19:13:24.050Z,99535.84
2022-08-12T19:15:57.755Z,99538.66
2022-08-12T19:18:29.782Z,99533.06
2022-08-12T19:21:06.336Z,99538.72
2022-08-12T19:23:40.394Z,99527.94
2022-08-12T19:26:10.764Z,99535.38
2022-08-12T19:28:41.478Z,99530.88
2022-08-12T19:31:56.859Z,99529.72
2022-08-12T19:37:22.671Z,99533.00
2022-08-12T19:40:09.841Z,99536.28
2022-08-12T19:42:44.855Z,99536.06
2022-08-12T19:45:17.113Z,99535.34
2022-08-12T19:47:47.016Z,99535.97
2022-08-12T19:50:20.068Z,99532.91
2022-08-12T19:52:51.103Z,99533.16
2022-08-12T19:55:23.320Z,99533.72
2022-08-12T19:58:03.101Z,99526.13
2022-08-12T20:00:36.479Z,99524.56
2022-08-12T20:03:08.115Z,99526.84
2022-08-12T20:06:05.328Z,99515.81
2022-08-12T20:08:37.989Z,99525.19
2022-08-12T20:12:12.660Z,99520.69
2022-08-12T20:14:01.263Z,99525.06
2022-08-12T20:19:53.295Z,99522.09
2022-08-12T20:22:24.143Z,99526.97
2022-08-12T20:25:01.732Z,99517.38
2022-08-12T20:28:03.255Z,99522.66
2022-08-12T20:30:37.377Z,99521.81
2022-08-12T20:33:17.752Z,99526.00
2022-08-12T20:36:13.529Z,99518.38
2022-08-12T20:38:40.411Z,99513.16
2022-08-12T20:41:16.790Z,99515.38
2022-08-12T20:43:52.395Z,99521.72
2022-08-12T20:46:21.559Z,99521.94
2022-08-12T20:48:54.730Z,99520.16
2022-08-12T20:51:24.950Z,99519.66
2022-08-12T20:53:58.776Z,99515.06
2022-08-12T20:56:33.427Z,99516.56
2022-08-12T20:59:06.267Z,99518.47
2022-08-12T21:01:47.085Z,99522.63
2022-08-12T21:04:35.236Z,99517.50
2022-08-12T21:07:09.535Z,99512.56
2022-08-12T21:09:42.152Z,99522.28
2022-08-12T21:12:31.066Z,99518.84
2022-08-12T21:15:23.197Z,99513.50
2022-08-12T21:18:11.031Z,99517.19
2022-08-12T21:20:50.234Z,99523.00
2022-08-12T21:23:22.792Z,99526.69
2022-08-12T21:25:52.929Z,99527.31
2022-08-12T21:28:31.093Z,99521.25
2022-08-12T21:32:34.533Z,99519.13
2022-08-12T21:34:08.789Z,99515.41
2022-08-12T21:36:43.106Z,99515.06
2022-08-12T21:39:18.868Z,99525.53
2022-08-12T21:41:51.551Z,99527.16
2022-08-12T21:45:44.682Z,99526.09
2022-08-12T21:47:20.118Z,99527.22
2022-08-12T21:50:03.000Z,99520.75
2022-08-12T21:52:36.091Z,99531.63
2022-08-12T21:55:08.592Z,99527.59
2022-08-12T21:57:51.196Z,99523.38
2022-08-12T22:00:32.268Z,99529.19
2022-08-12T22:04:01.676Z,99527.84
2022-08-12T22:06:31.734Z,99520.88
2022-08-12T22:09:15.433Z,99529.75
2022-08-12T22:11:58.732Z,99523.00
2022-08-12T22:14:29.626Z,99520.88
2022-08-12T22:17:00.391Z,99517.03
2022-08-12T22:19:29.201Z,99529.81
2022-08-12T22:22:05.372Z,99529.34
2022-08-12T22:24:33.911Z,99536.06
2022-08-12T22:27:08.380Z,99523.00
2022-08-12T22:30:08.704Z,99517.91
2022-08-12T22:32:47.497Z,99520.56
2022-08-12T22:35:47.432Z,99519.59
2022-08-12T22:38:23.800Z,99523.25
2022-08-12T22:40:53.984Z,99514.84
2022-08-12T22:44:00.710Z,99519.44
2022-08-12T22:46:52.715Z,99515.59
2022-08-12T22:49:37.291Z,99517.53
2022-08-12T22:52:12.905Z,99510.47
2022-08-12T22:55:00.182Z,99517.91
2022-08-12T22:57:53.576Z,99519.47
2022-08-12T23:00:27.410Z,99511.97
2022-08-12T23:03:00.600Z,99511.53
2022-08-12T23:05:36.833Z,99507.22
2022-08-12T23:08:22.325Z,99506.53
2022-08-12T23:10:50.593Z,99507.47
2022-08-12T23:13:42.885Z,99506.41
2022-08-12T23:16:18.131Z,99499.88
2022-08-12T23:18:59.072Z,99492.22
2022-08-12T23:22:03.391Z,99496.22
2022-08-12T23:24:17.006Z,99501.16
2022-08-12T23:27:03.289Z,99501.78
2022-08-12T23:29:43.712Z,99487.16
2022-08-12T23:32:35.099Z,99491.03
2022-08-12T23:35:03.895Z,99485.66
2022-08-12T23:37:47.284Z,99494.34
2022-08-12T23:40:21.264Z,99489.97
2022-08-12T23:42:50.749Z,99484.88
2022-08-12T23:45:30.937Z,99487.81
2022-08-12T23:48:02.524Z,99484.59
2022-08-12T23:50:34.417Z,99486.78
2022-08-12T23:53:05.554Z,99488.31
2022-08-12T23:55:40.734Z,99487.94
2022-08-12T23:58:21.253Z,99480.19
